Decoded Metar for KCBM (COLOMBUS in MS, USA) (IATA:CBM) | Meteo·Mobile Aviation Weather
aviador You're here:

KCBM Decoded Metar

COLOMBUS in MS, USA
Report Time2019-03-20 22:56:00
UTC Time2019-03-20 23:16:47
Flight Rules vfr VFR
WindCalm
Visibility9999 m
Phenomena:N/A
Clouds:N/A
Expected CloudBase > 7,600 ft AGL from Temp-Dew spread
CeilingNone
Temp19°C (ISA +4)
Dew Point00°C (28% RH)
AAT17.0°C
QNH1018 hPa
Density Alt659 ft
Elevation220 ft
Report Wrong Elevation
Raw Report
KCBM 202256Z AUTO 00000KT 10SM CLR 19/00 A3007 RMK AO2 SLP186
T01860002 $=

Extra information for KCBM:More info

Metar Taf Metar & Taf Last 4 Metars F.Rules Stats Wind Profile Meteogram Temp Stats Airport Information Weather charts Add Link Nearby VenuesMetar ALERT Operation Metar Decoded Social comments

AIRNAV info for KCBM